createdAt,value
2022-11-02T00:01:51.987Z,68.70
2022-11-02T00:04:19.480Z,68.96
2022-11-02T00:06:46.980Z,68.93
2022-11-02T00:09:14.441Z,68.56
2022-11-02T00:11:42.164Z,68.73
2022-11-02T00:14:09.604Z,68.75
2022-11-02T00:16:37.870Z,68.49
2022-11-02T00:19:06.642Z,68.71
2022-11-02T00:21:34.088Z,68.50
2022-11-02T00:24:01.583Z,68.64
2022-11-02T00:26:29.098Z,68.41
2022-11-02T00:28:56.538Z,68.49
2022-11-02T00:31:24.510Z,68.56
2022-11-02T00:33:52.285Z,68.39
2022-11-02T00:36:21.084Z,69.28
2022-11-02T00:38:48.884Z,68.91
2022-11-02T00:41:16.341Z,68.96
2022-11-02T00:43:43.829Z,68.95
2022-11-02T00:46:11.623Z,68.70
2022-11-02T00:48:39.097Z,68.50
2022-11-02T00:51:06.953Z,68.36
2022-11-02T00:53:36.700Z,68.22
2022-11-02T00:56:04.219Z,68.20
2022-11-02T00:58:32.079Z,68.24
2022-11-02T01:01:01.998Z,68.04
2022-11-02T01:03:30.305Z,68.25
2022-11-02T01:05:57.775Z,68.02
2022-11-02T01:08:25.243Z,68.02
2022-11-02T01:10:53.995Z,68.04
2022-11-02T01:13:21.473Z,67.94
2022-11-02T01:15:48.909Z,67.87
2022-11-02T01:18:16.376Z,67.76
2022-11-02T01:20:43.853Z,67.70
2022-11-02T01:23:11.333Z,67.92
2022-11-02T01:25:38.791Z,67.75
2022-11-02T01:28:07.915Z,67.67
2022-11-02T01:30:35.473Z,67.62
2022-11-02T01:33:02.925Z,67.46
2022-11-02T01:35:30.444Z,67.66
2022-11-02T01:37:57.889Z,67.61
2022-11-02T01:40:25.344Z,67.55
2022-11-02T01:42:52.846Z,67.44
2022-11-02T01:45:21.773Z,67.50
2022-11-02T01:47:49.224Z,67.26
2022-11-02T01:50:20.911Z,67.40
2022-11-02T01:52:48.367Z,67.46
2022-11-02T01:55:19.274Z,67.34
2022-11-02T01:57:47.995Z,67.21
2022-11-02T02:00:16.646Z,67.42
2022-11-02T02:02:53.811Z,67.08
2022-11-02T02:05:21.897Z,67.23
2022-11-02T02:07:51.074Z,66.95
2022-11-02T02:10:18.831Z,66.87
2022-11-02T02:12:46.281Z,66.99
2022-11-02T02:15:17.976Z,66.86
2022-11-02T02:17:48.927Z,66.96
2022-11-02T02:20:27.339Z,67.02
2022-11-02T02:23:26.558Z,66.72
2022-11-02T02:26:21.664Z,66.81
2022-11-02T02:28:52.486Z,66.67
2022-11-02T02:31:21.549Z,66.90
2022-11-02T02:33:50.317Z,66.56
2022-11-02T02:36:21.363Z,66.64
2022-11-02T02:38:50.122Z,66.53
2022-11-02T02:41:20.279Z,66.64
2022-11-02T02:43:50.428Z,66.46
2022-11-02T02:46:20.605Z,66.58
2022-11-02T02:48:48.319Z,67.73
2022-11-02T02:51:17.928Z,67.69
2022-11-02T02:53:46.367Z,67.72
2022-11-02T02:56:17.660Z,67.45
2022-11-02T02:58:46.595Z,67.70
2022-11-02T03:01:15.593Z,67.46
2022-11-02T03:03:43.887Z,67.44
2022-11-02T03:06:16.236Z,67.19
2022-11-02T03:08:49.869Z,67.28
2022-11-02T03:11:17.844Z,67.33
2022-11-02T03:13:55.611Z,67.36
2022-11-02T03:16:32.271Z,66.99
2022-11-02T03:19:03.300Z,67.10
2022-11-02T03:21:39.159Z,67.61
2022-11-02T03:24:09.397Z,67.45
2022-11-02T03:26:39.220Z,67.46
2022-11-02T03:29:09.785Z,67.49
2022-11-02T03:31:41.524Z,67.23
2022-11-02T03:34:15.462Z,67.29
2022-11-02T03:36:46.187Z,67.21
2022-11-02T03:39:14.712Z,67.18
2022-11-02T03:41:43.458Z,67.16
2022-11-02T03:44:12.447Z,67.14
2022-11-02T03:46:41.765Z,67.26
2022-11-02T03:49:11.212Z,67.15
2022-11-02T03:51:39.817Z,66.94
2022-11-02T03:54:09.324Z,67.10
2022-11-02T03:56:38.469Z,66.94
2022-11-02T03:59:05.974Z,67.11
2022-11-02T04:01:33.512Z,66.99
2022-11-02T04:04:04.629Z,67.20
2022-11-02T04:06:33.145Z,67.13
2022-11-02T04:09:01.698Z,67.12
2022-11-02T04:11:48.582Z,67.15
2022-11-02T04:14:33.745Z,66.94
2022-11-02T04:17:20.195Z,67.05
2022-11-02T04:19:52.423Z,67.00
2022-11-02T04:22:39.291Z,67.01
2022-11-02T04:25:19.426Z,67.11
2022-11-02T04:28:12.935Z,67.04
2022-11-02T04:30:50.161Z,66.82
2022-11-02T04:33:39.859Z,66.98
2022-11-02T04:36:14.163Z,66.89
2022-11-02T04:38:41.392Z,66.86
2022-11-02T04:41:43.003Z,66.94
2022-11-02T04:44:30.495Z,66.90
2022-11-02T04:47:07.373Z,66.74
2022-11-02T04:49:36.097Z,66.74
2022-11-02T04:52:07.369Z,66.78
2022-11-02T04:54:36.522Z,66.50
2022-11-02T04:57:06.367Z,66.53
2022-11-02T04:59:34.486Z,66.77
2022-11-02T05:02:02.168Z,66.61
2022-11-02T05:04:29.989Z,66.55
2022-11-02T05:07:01.487Z,66.72
2022-11-02T05:09:32.082Z,66.51
2022-11-02T05:12:01.696Z,66.33
2022-11-02T05:14:29.211Z,66.49
2022-11-02T05:16:56.714Z,66.49
2022-11-02T05:19:24.782Z,66.42
2022-11-02T05:21:53.148Z,66.58
2022-11-02T05:24:20.689Z,66.57
2022-11-02T05:26:53.772Z,66.57
2022-11-02T05:29:23.728Z,66.32
2022-11-02T05:31:52.123Z,66.24
2022-11-02T05:34:19.893Z,66.39
2022-11-02T05:36:48.793Z,66.32
2022-11-02T05:39:16.574Z,66.65
2022-11-02T05:41:44.039Z,66.47
2022-11-02T05:44:12.968Z,66.50
2022-11-02T05:46:40.840Z,66.34
2022-11-02T05:49:08.294Z,66.45
2022-11-02T05:51:35.745Z,66.34
2022-11-02T05:54:03.239Z,66.37
2022-11-02T05:56:30.703Z,66.25
2022-11-02T05:58:58.157Z,66.37
2022-11-02T06:01:26.954Z,66.20
2022-11-02T06:03:54.648Z,66.66
2022-11-02T06:06:22.206Z,67.00
2022-11-02T06:08:49.830Z,66.93
2022-11-02T06:11:17.988Z,67.19
2022-11-02T06:13:45.521Z,67.17
2022-11-02T06:16:20.014Z,66.77
2022-11-02T06:18:51.391Z,67.21
2022-11-02T06:21:18.933Z,66.83
2022-11-02T06:23:48.199Z,66.75
2022-11-02T06:26:15.753Z,66.73
2022-11-02T06:28:43.233Z,66.74
2022-11-02T06:31:11.483Z,66.71
2022-11-02T06:33:38.957Z,66.80
2022-11-02T06:36:08.482Z,66.90
2022-11-02T06:38:35.956Z,66.75
2022-11-02T06:41:05.694Z,66.62
2022-11-02T06:43:34.241Z,66.86
2022-11-02T06:46:01.734Z,66.62
2022-11-02T06:48:34.587Z,66.03
2022-11-02T06:51:02.343Z,65.67
2022-11-02T06:53:31.104Z,65.05
2022-11-02T06:55:58.903Z,64.66
2022-11-02T06:58:26.496Z,64.94
2022-11-02T07:00:58.562Z,64.67
2022-11-02T07:03:26.308Z,64.93
2022-11-02T07:05:53.879Z,64.87
2022-11-02T07:08:22.010Z,65.34
2022-11-02T07:10:50.785Z,65.13
2022-11-02T07:13:18.299Z,64.72
2022-11-02T07:15:45.794Z,64.85
2022-11-02T07:18:13.493Z,64.69
2022-11-02T07:20:40.988Z,64.91
2022-11-02T07:23:08.942Z,64.52
2022-11-02T07:25:36.570Z,64.48
2022-11-02T07:28:05.529Z,64.55
2022-11-02T07:30:34.907Z,64.56
2022-11-02T07:33:02.899Z,64.73
2022-11-02T07:35:30.737Z,64.53
2022-11-02T07:37:58.787Z,64.37
2022-11-02T07:40:26.410Z,64.49
2022-11-02T07:42:54.590Z,64.52
2022-11-02T07:45:31.999Z,64.51
2022-11-02T07:47:59.505Z,64.47
2022-11-02T07:50:32.322Z,64.43
2022-11-02T07:53:00.600Z,64.45
2022-11-02T07:55:29.380Z,64.58
2022-11-02T07:57:57.709Z,64.55
2022-11-02T08:00:25.353Z,64.43
2022-11-02T08:02:56.471Z,64.27
2022-11-02T08:05:23.966Z,64.33
2022-11-02T08:07:57.544Z,64.22
2022-11-02T08:10:25.122Z,64.30
2022-11-02T08:12:52.616Z,64.05
2022-11-02T08:15:20.074Z,64.21
2022-11-02T08:17:47.581Z,64.15
2022-11-02T08:20:16.698Z,64.00
2022-11-02T08:22:44.173Z,64.23
2022-11-02T08:25:11.673Z,64.31
2022-11-02T08:27:39.158Z,64.42
2022-11-02T08:30:08.039Z,64.33
2022-11-02T08:32:35.533Z,64.50
2022-11-02T08:35:03.007Z,64.61
2022-11-02T08:37:31.794Z,64.46
2022-11-02T08:39:59.241Z,64.46
2022-11-02T08:42:26.701Z,64.49
2022-11-02T08:44:54.165Z,64.53
2022-11-02T08:47:21.767Z,64.40
2022-11-02T08:49:49.295Z,64.60
2022-11-02T08:52:16.751Z,64.33
2022-11-02T08:54:45.712Z,64.05
2022-11-02T08:57:13.252Z,64.33
2022-11-02T08:59:40.755Z,63.85
2022-11-02T09:02:09.955Z,64.19
2022-11-02T09:04:37.584Z,63.98
2022-11-02T09:07:05.037Z,65.51
2022-11-02T09:09:32.577Z,65.21
2022-11-02T09:12:01.439Z,64.93
2022-11-02T09:14:29.105Z,64.77
2022-11-02T09:16:56.632Z,64.49
2022-11-02T09:19:24.070Z,64.11
2022-11-02T09:21:51.637Z,64.18
2022-11-02T09:24:19.075Z,63.07
2022-11-02T09:26:48.479Z,63.61
2022-11-02T09:29:17.437Z,61.74
2022-11-02T09:31:44.922Z,60.92
2022-11-02T09:34:12.374Z,60.23
2022-11-02T09:36:39.827Z,61.24
2022-11-02T09:39:07.294Z,61.23
2022-11-02T09:41:35.842Z,61.36
2022-11-02T09:44:04.564Z,61.16
2022-11-02T09:46:34.538Z,60.57
2022-11-02T09:49:02.812Z,60.74
2022-11-02T09:51:33.704Z,59.77
2022-11-02T09:54:04.639Z,60.58
2022-11-02T09:56:32.422Z,60.94
2022-11-02T09:59:01.421Z,62.13
2022-11-02T10:01:38.897Z,61.90
2022-11-02T10:04:19.352Z,61.33
2022-11-02T10:06:49.430Z,60.69
2022-11-02T10:09:18.825Z,60.31
2022-11-02T10:11:48.895Z,59.82
2022-11-02T10:14:18.535Z,58.23
2022-11-02T10:16:51.055Z,59.17
2022-11-02T10:19:19.746Z,62.71
2022-11-02T10:21:48.145Z,64.24
2022-11-02T10:24:30.859Z,64.94
2022-11-02T10:27:00.575Z,64.60
2022-11-02T10:29:35.458Z,63.99
2022-11-02T10:32:04.267Z,63.92
2022-11-02T10:34:32.243Z,63.55
2022-11-02T10:37:07.580Z,62.73
2022-11-02T10:39:38.494Z,62.11
2022-11-02T10:42:17.574Z,62.07
2022-11-02T10:45:04.402Z,61.12
2022-11-02T10:47:34.416Z,61.31
2022-11-02T10:50:25.023Z,61.28
2022-11-02T10:52:52.484Z,61.52
2022-11-02T10:55:24.228Z,61.14
2022-11-02T10:57:51.679Z,60.85
2022-11-02T11:00:30.120Z,61.16
2022-11-02T11:03:06.707Z,60.67
2022-11-02T11:05:34.596Z,60.53
2022-11-02T11:08:02.489Z,60.62
2022-11-02T11:10:31.720Z,60.25
2022-11-02T11:12:59.230Z,60.27
2022-11-02T11:21:06.991Z,59.80
2022-11-02T11:23:34.654Z,59.74
2022-11-02T11:26:02.926Z,59.87
2022-11-02T11:28:32.284Z,59.48
2022-11-02T11:31:07.107Z,59.82
2022-11-02T11:33:43.202Z,59.48
2022-11-02T11:36:10.861Z,59.48
2022-11-02T11:38:38.615Z,59.70
2022-11-02T11:41:06.450Z,59.46
2022-11-02T11:43:38.205Z,59.38
2022-11-02T11:46:07.330Z,59.31
2022-11-02T11:48:38.112Z,59.27
2022-11-02T11:51:05.964Z,59.17
2022-11-02T11:53:35.429Z,59.59
2022-11-02T11:56:02.917Z,59.57
2022-11-02T11:58:30.691Z,59.76
2022-11-02T12:01:10.350Z,59.75
2022-11-02T12:03:52.395Z,59.96
2022-11-02T12:06:23.980Z,59.88
2022-11-02T12:08:53.034Z,59.51
2022-11-02T12:11:26.871Z,58.74
2022-11-02T12:14:02.962Z,58.94
2022-11-02T12:16:34.440Z,59.02
2022-11-02T12:19:13.816Z,59.17
2022-11-02T12:21:49.584Z,58.85
2022-11-02T12:24:31.989Z,58.77
2022-11-02T12:27:08.721Z,58.43
2022-11-02T12:29:47.527Z,58.67
2022-11-02T12:32:21.961Z,58.36
2022-11-02T12:35:27.400Z,58.33
2022-11-02T12:37:57.197Z,58.20
2022-11-02T12:40:27.549Z,58.23
2022-11-02T12:42:58.014Z,59.87
2022-11-02T12:45:27.363Z,58.79
2022-11-02T12:47:57.163Z,58.98
2022-11-02T12:50:33.879Z,59.78
2022-11-02T12:53:12.286Z,59.35
2022-11-02T12:55:42.975Z,60.14
2022-11-02T12:58:14.660Z,59.78
2022-11-02T13:00:42.588Z,59.76
2022-11-02T13:03:17.586Z,59.90
2022-11-02T13:05:50.313Z,59.75
2022-11-02T13:08:18.784Z,59.84
2022-11-02T13:10:50.808Z,59.97
2022-11-02T13:13:23.713Z,59.87
2022-11-02T13:15:51.301Z,59.88
2022-11-02T13:18:20.549Z,59.83
2022-11-02T13:20:51.026Z,59.75
2022-11-02T13:23:22.722Z,59.86
2022-11-02T13:25:51.979Z,59.87
2022-11-02T13:28:22.762Z,59.65
2022-11-02T13:30:50.233Z,59.51
2022-11-02T13:33:19.431Z,59.60
2022-11-02T13:35:47.276Z,59.51
2022-11-02T13:38:23.066Z,59.73
2022-11-02T13:40:51.321Z,59.82
2022-11-02T13:43:37.461Z,59.92
2022-11-02T13:46:12.504Z,59.80
2022-11-02T13:48:41.338Z,59.75
2022-11-02T13:51:12.428Z,59.89
2022-11-02T13:53:42.227Z,59.88
2022-11-02T13:56:10.506Z,60.03
2022-11-02T13:58:41.617Z,59.88
2022-11-02T14:01:09.966Z,60.02
2022-11-02T14:03:47.301Z,59.98
2022-11-02T14:06:16.243Z,60.37
2022-11-02T14:08:49.534Z,60.52
2022-11-02T14:11:35.990Z,60.44
2022-11-02T14:14:22.283Z,60.36
2022-11-02T14:17:14.328Z,60.34
2022-11-02T14:20:00.438Z,60.54
2022-11-02T14:22:31.058Z,60.42
2022-11-02T14:25:28.116Z,60.61
2022-11-02T14:27:55.545Z,60.44
2022-11-02T14:30:45.805Z,60.76
2022-11-02T14:33:20.540Z,60.74
2022-11-02T14:35:50.369Z,60.65
2022-11-02T14:38:37.069Z,60.54
2022-11-02T14:41:13.588Z,60.76
2022-11-02T14:44:02.299Z,60.74
2022-11-02T14:46:38.057Z,60.50
2022-11-02T14:49:05.554Z,60.51
2022-11-02T14:51:33.927Z,60.60
2022-11-02T14:54:02.752Z,61.21
2022-11-02T14:56:51.246Z,61.78
2022-11-02T14:59:20.320Z,61.60
2022-11-02T15:01:52.342Z,61.13
2022-11-02T15:04:19.920Z,61.44
2022-11-02T15:06:52.309Z,61.25
2022-11-02T15:09:49.629Z,61.20
2022-11-02T15:12:38.628Z,61.42
2022-11-02T15:15:39.273Z,61.53
2022-11-02T15:18:22.878Z,61.65
2022-11-02T15:21:27.805Z,61.78
2022-11-02T15:24:20.306Z,61.70
2022-11-02T15:26:52.219Z,61.67
2022-11-02T15:29:32.243Z,61.56
2022-11-02T15:32:00.327Z,61.59
2022-11-02T15:34:32.863Z,61.41
2022-11-02T15:37:00.616Z,61.59
2022-11-02T15:39:28.332Z,61.50
2022-11-02T15:41:58.383Z,61.49
2022-11-02T15:44:46.953Z,61.61
2022-11-02T15:47:17.360Z,61.58
2022-11-02T15:49:57.655Z,61.40
2022-11-02T15:52:29.513Z,61.45
2022-11-02T15:55:01.992Z,61.40
2022-11-02T15:57:35.993Z,61.48
2022-11-02T16:00:10.249Z,61.54
2022-11-02T16:02:38.046Z,61.28
2022-11-02T16:05:06.904Z,61.53
2022-11-02T16:07:50.213Z,61.14
2022-11-02T16:10:25.240Z,61.33
2022-11-02T16:13:00.183Z,61.14
2022-11-02T16:15:29.046Z,61.33
2022-11-02T16:17:56.605Z,61.35
2022-11-02T16:20:25.563Z,61.19
2022-11-02T16:22:55.264Z,61.08
2022-11-02T16:25:26.628Z,61.27
2022-11-02T16:27:54.072Z,61.01
2022-11-02T16:30:22.616Z,61.03
2022-11-02T16:32:53.543Z,61.09
2022-11-02T16:35:21.471Z,60.91
2022-11-02T16:37:49.753Z,60.91
2022-11-02T16:40:17.961Z,60.82
2022-11-02T16:42:46.799Z,60.86
2022-11-02T16:45:31.227Z,61.00
2022-11-02T16:47:59.978Z,60.89
2022-11-02T16:50:28.168Z,61.02
2022-11-02T16:52:56.927Z,60.95
2022-11-02T16:55:40.896Z,61.00
2022-11-02T16:58:09.578Z,60.95
2022-11-02T17:00:37.141Z,60.75
2022-11-02T17:03:10.153Z,61.03
2022-11-02T17:05:37.622Z,60.78
2022-11-02T17:08:08.364Z,60.90
2022-11-02T17:10:36.839Z,61.11
2022-11-02T17:13:04.547Z,61.01
2022-11-02T17:15:33.055Z,60.81
2022-11-02T17:18:26.042Z,60.90
2022-11-02T17:21:27.751Z,60.55
2022-11-02T17:23:58.515Z,60.63
2022-11-02T17:26:27.967Z,60.60
2022-11-02T17:28:55.648Z,60.72
2022-11-02T17:31:23.771Z,60.73
2022-11-02T17:33:52.680Z,60.73
2022-11-02T17:36:20.160Z,60.46
2022-11-02T17:38:47.637Z,60.63
2022-11-02T17:41:34.953Z,60.61
2022-11-02T17:44:02.468Z,60.78
2022-11-02T17:46:29.995Z,60.51
2022-11-02T17:48:58.764Z,60.58
2022-11-02T17:51:26.246Z,60.82
2022-11-02T17:53:53.688Z,60.72
2022-11-02T17:56:21.145Z,60.96
2022-11-02T17:58:48.600Z,60.64
2022-11-02T18:01:16.091Z,60.62
2022-11-02T18:03:43.682Z,60.63
2022-11-02T18:06:12.438Z,60.74
2022-11-02T18:08:53.923Z,60.81
2022-11-02T18:11:25.990Z,61.00
2022-11-02T18:13:56.499Z,60.89
2022-11-02T18:16:23.955Z,61.08
2022-11-02T18:18:51.414Z,61.07
2022-11-02T18:21:20.181Z,61.68
2022-11-02T18:23:47.654Z,61.24
2022-11-02T18:26:15.174Z,61.14
2022-11-02T18:28:42.606Z,61.80
2022-11-02T18:31:10.216Z,61.80
2022-11-02T18:33:37.717Z,62.30
2022-11-02T18:36:06.073Z,61.94
2022-11-02T18:38:34.834Z,62.09
2022-11-02T18:41:25.857Z,62.28
2022-11-02T18:43:53.365Z,62.29
2022-11-02T18:46:20.829Z,62.40
2022-11-02T18:48:48.302Z,62.35
2022-11-02T18:51:15.758Z,63.77
2022-11-02T18:53:44.540Z,62.56
2022-11-02T18:56:12.149Z,66.71
2022-11-02T18:58:39.589Z,67.02
2022-11-02T19:01:08.589Z,67.02
2022-11-02T19:03:36.401Z,66.44
2022-11-02T19:06:21.827Z,66.13
2022-11-02T19:09:08.561Z,66.08
2022-11-02T19:11:36.041Z,65.78
2022-11-02T19:14:05.035Z,65.46
2022-11-02T19:16:32.691Z,65.30
2022-11-02T19:19:00.152Z,64.93
2022-11-02T19:21:30.340Z,64.93
2022-11-02T19:23:59.140Z,64.50
2022-11-02T19:26:27.116Z,64.38
2022-11-02T19:28:54.596Z,64.09
2022-11-02T19:31:22.058Z,64.10
2022-11-02T19:33:49.532Z,63.95
2022-11-02T19:36:17.092Z,63.65
2022-11-02T19:38:44.543Z,63.63
2022-11-02T19:41:14.261Z,63.41
2022-11-02T19:43:42.663Z,63.20
2022-11-02T19:46:13.038Z,62.98
2022-11-02T19:48:40.537Z,62.76
2022-11-02T19:51:09.077Z,63.02
2022-11-02T19:53:36.781Z,65.28
2022-11-02T19:56:04.424Z,65.79
2022-11-02T19:58:33.186Z,65.97
2022-11-02T20:01:06.073Z,65.36
2022-11-02T20:03:33.542Z,65.80
2022-11-02T20:06:01.053Z,65.54
2022-11-02T20:08:28.516Z,65.95
2022-11-02T20:11:02.813Z,65.30
2022-11-02T20:13:30.257Z,66.47
2022-11-02T20:15:59.047Z,66.13
2022-11-02T20:18:26.835Z,65.52
2022-11-02T20:20:54.462Z,64.48
2022-11-02T20:23:22.047Z,63.54
2022-11-02T20:25:49.544Z,63.22
2022-11-02T20:28:17.018Z,62.76
2022-11-02T20:30:44.525Z,62.77
2022-11-02T20:33:13.319Z,62.62
2022-11-02T20:35:40.825Z,62.26
2022-11-02T20:38:08.509Z,62.39
2022-11-02T20:40:41.010Z,61.98
2022-11-02T20:43:08.936Z,62.16
2022-11-02T20:45:36.404Z,61.89
2022-11-02T20:48:04.371Z,61.82
2022-11-02T20:50:33.764Z,61.74
2022-11-02T20:53:01.249Z,61.62
2022-11-02T20:55:28.779Z,61.52
2022-11-02T20:57:56.597Z,61.51
2022-11-02T21:00:25.494Z,61.26
2022-11-02T21:02:52.956Z,61.22
2022-11-02T21:05:20.557Z,61.00
2022-11-02T21:07:50.115Z,60.57
2022-11-02T21:10:18.298Z,60.23
2022-11-02T21:13:03.493Z,60.21
2022-11-02T21:15:31.102Z,59.99
2022-11-02T21:18:00.525Z,60.05
2022-11-02T21:20:34.036Z,60.07
2022-11-02T21:23:03.968Z,59.83
2022-11-02T21:25:31.901Z,60.04
2022-11-02T21:27:59.456Z,59.89
2022-11-02T21:30:26.990Z,60.00
2022-11-02T21:32:54.799Z,60.00
2022-11-02T21:35:22.348Z,60.11
2022-11-02T21:37:49.864Z,60.15
2022-11-02T21:40:18.649Z,59.81
2022-11-02T21:42:46.153Z,59.86
2022-11-02T21:45:17.818Z,59.80
2022-11-02T21:47:45.855Z,59.98
2022-11-02T21:50:13.551Z,59.83
2022-11-02T21:52:44.150Z,59.77
2022-11-02T21:55:12.869Z,59.90
2022-11-02T21:57:41.661Z,59.81
2022-11-02T22:00:10.288Z,59.62
2022-11-02T22:02:39.171Z,59.90
2022-11-02T22:05:07.201Z,59.85
2022-11-02T22:07:54.654Z,59.77
2022-11-02T22:10:22.645Z,59.62
2022-11-02T22:13:09.129Z,59.54
2022-11-02T22:15:38.420Z,59.54
2022-11-02T22:18:06.121Z,59.70
2022-11-02T22:20:33.575Z,59.63
2022-11-02T22:23:01.055Z,59.03
2022-11-02T22:25:28.521Z,58.71
2022-11-02T22:27:57.316Z,58.44
2022-11-02T22:30:25.241Z,58.44
2022-11-02T22:32:52.692Z,58.52
2022-11-02T22:35:20.284Z,57.98
2022-11-02T22:38:05.330Z,57.53
2022-11-02T22:40:32.825Z,57.47
2022-11-02T22:43:01.641Z,59.17
2022-11-02T22:45:29.135Z,57.93
2022-11-02T22:47:56.579Z,57.56
2022-11-02T22:50:26.866Z,57.28
2022-11-02T22:52:55.541Z,57.09
2022-11-02T22:55:23.021Z,57.03
2022-11-02T22:57:58.831Z,56.51
2022-11-02T23:00:28.867Z,60.78
2022-11-02T23:02:56.299Z,60.71
2022-11-02T23:05:23.811Z,60.62
2022-11-02T23:07:51.251Z,60.57
2022-11-02T23:10:33.906Z,60.44
2022-11-02T23:13:01.375Z,60.32
2022-11-02T23:15:31.319Z,60.27
2022-11-02T23:17:58.811Z,60.06
2022-11-02T23:20:25.367Z,59.98
2022-11-02T23:23:10.741Z,59.92
2022-11-02T23:25:38.205Z,59.85
2022-11-02T23:31:13.016Z,59.73
2022-11-02T23:33:40.834Z,59.49
2022-11-02T23:36:11.487Z,59.34
2022-11-02T23:38:56.581Z,59.73
2022-11-02T23:41:24.027Z,59.54
2022-11-02T23:43:51.503Z,59.66
2022-11-02T23:46:20.361Z,59.46
2022-11-02T23:48:51.130Z,59.23
2022-11-02T23:51:38.858Z,59.33
2022-11-02T23:54:24.315Z,59.58
2022-11-02T23:56:51.856Z,59.78
2022-11-02T23:59:19.355Z,59.69
